sensor_id;sensor_type;location;lat;lon;timestamp;temperature;humidity
1205;DHT22;592;48.764;9.174;2023-07-02T00:01:20;16.80;99.90
1205;DHT22;592;48.764;9.174;2023-07-02T00:03:46;16.90;99.90
1205;DHT22;592;48.764;9.174;2023-07-02T00:06:13;16.80;99.90
1205;DHT22;592;48.764;9.174;2023-07-02T00:08:40;16.90;99.90
1205;DHT22;592;48.764;9.174;2023-07-02T00:11:07;16.90;99.90
1205;DHT22;592;48.764;9.174;2023-07-02T00:13:39;17.00;99.90
1205;DHT22;592;48.764;9.174;2023-07-02T00:16:05;17.00;99.90
1205;DHT22;592;48.764;9.174;2023-07-02T00:18:32;17.10;99.90
1205;DHT22;592;48.764;9.174;2023-07-02T00:21:00;17.20;99.90
1205;DHT22;592;48.764;9.174;2023-07-02T00:23:28;17.10;99.90
1205;DHT22;592;48.764;9.174;2023-07-02T00:25:55;17.00;99.90
1205;DHT22;592;48.764;9.174;2023-07-02T00:28:21;17.00;99.90
1205;DHT22;592;48.764;9.174;2023-07-02T00:30:49;17.10;99.90
1205;DHT22;592;48.764;9.174;2023-07-02T00:33:16;17.10;99.90
1205;DHT22;592;48.764;9.174;2023-07-02T00:35:43;17.10;99.90
1205;DHT22;592;48.764;9.174;2023-07-02T00:38:09;17.10;99.90
1205;DHT22;592;48.764;9.174;2023-07-02T00:40:36;17.10;99.90
1205;DHT22;592;48.764;9.174;2023-07-02T00:43:03;16.90;99.90
1205;DHT22;592;48.764;9.174;2023-07-02T00:45:30;16.90;99.90
1205;DHT22;592;48.764;9.174;2023-07-02T00:47:58;16.80;99.90
1205;DHT22;592;48.764;9.174;2023-07-02T00:50:25;16.60;99.90
1205;DHT22;592;48.764;9.174;2023-07-02T00:52:53;16.70;99.90
1205;DHT22;592;48.764;9.174;2023-07-02T00:55:20;16.70;99.90
1205;DHT22;592;48.764;9.174;2023-07-02T00:57:47;16.60;99.90
1205;DHT22;592;48.764;9.174;2023-07-02T01:00:14;16.60;99.90
1205;DHT22;592;48.764;9.174;2023-07-02T01:02:41;16.60;99.90
1205;DHT22;592;48.764;9.174;2023-07-02T01:05:14;16.70;99.90
1205;DHT22;592;48.764;9.174;2023-07-02T01:07:40;16.80;99.90
1205;DHT22;592;48.764;9.174;2023-07-02T01:10:08;16.70;99.90
1205;DHT22;592;48.764;9.174;2023-07-02T01:12:35;16.90;99.90
1205;DHT22;592;48.764;9.174;2023-07-02T01:15:03;16.90;99.90
1205;DHT22;592;48.764;9.174;2023-07-02T01:17:32;16.90;99.90
1205;DHT22;592;48.764;9.174;2023-07-02T01:20:08;17.00;99.90
1205;DHT22;592;48.764;9.174;2023-07-02T01:22:35;16.90;99.90
1205;DHT22;592;48.764;9.174;2023-07-02T01:25:03;16.80;99.90
1205;DHT22;592;48.764;9.174;2023-07-02T01:27:30;16.80;99.90
1205;DHT22;592;48.764;9.174;2023-07-02T01:29:58;16.70;99.90
1205;DHT22;592;48.764;9.174;2023-07-02T01:32:24;16.70;99.90
1205;DHT22;592;48.764;9.174;2023-07-02T01:34:51;16.70;99.90
1205;DHT22;592;48.764;9.174;2023-07-02T01:37:20;16.60;99.90
1205;DHT22;592;48.764;9.174;2023-07-02T01:39:47;16.60;99.90
1205;DHT22;592;48.764;9.174;2023-07-02T01:42:15;16.60;99.90
1205;DHT22;592;48.764;9.174;2023-07-02T01:44:43;16.60;99.90
1205;DHT22;592;48.764;9.174;2023-07-02T01:47:10;16.60;99.90
1205;DHT22;592;48.764;9.174;2023-07-02T01:49:36;16.60;99.90
1205;DHT22;592;48.764;9.174;2023-07-02T01:52:05;16.70;99.90
1205;DHT22;592;48.764;9.174;2023-07-02T01:54:35;16.70;99.90
1205;DHT22;592;48.764;9.174;2023-07-02T01:57:03;16.80;99.90
1205;DHT22;592;48.764;9.174;2023-07-02T01:59:30;16.90;99.90
1205;DHT22;592;48.764;9.174;2023-07-02T02:01:57;16.90;99.90
1205;DHT22;592;48.764;9.174;2023-07-02T02:04:23;16.90;99.90
1205;DHT22;592;48.764;9.174;2023-07-02T02:06:50;16.90;99.90
1205;DHT22;592;48.764;9.174;2023-07-02T02:09:18;16.90;99.90
1205;DHT22;592;48.764;9.174;2023-07-02T02:11:47;16.80;99.90
1205;DHT22;592;48.764;9.174;2023-07-02T02:14:14;16.80;99.90
1205;DHT22;592;48.764;9.174;2023-07-02T02:16:42;16.70;99.90
1205;DHT22;592;48.764;9.174;2023-07-02T02:19:11;16.80;99.90
1205;DHT22;592;48.764;9.174;2023-07-02T02:21:37;16.90;99.90
1205;DHT22;592;48.764;9.174;2023-07-02T02:24:05;16.90;99.90
1205;DHT22;592;48.764;9.174;2023-07-02T02:26:32;16.90;99.90
1205;DHT22;592;48.764;9.174;2023-07-02T02:29:00;16.90;99.90
1205;DHT22;592;48.764;9.174;2023-07-02T02:31:27;16.80;99.90
1205;DHT22;592;48.764;9.174;2023-07-02T02:33:55;16.90;99.90
1205;DHT22;592;48.764;9.174;2023-07-02T02:36:21;16.90;99.90
1205;DHT22;592;48.764;9.174;2023-07-02T02:38:48;17.00;99.90
1205;DHT22;592;48.764;9.174;2023-07-02T02:41:15;17.00;99.90
1205;DHT22;592;48.764;9.174;2023-07-02T02:43:42;17.00;99.90
1205;DHT22;592;48.764;9.174;2023-07-02T02:46:10;17.00;99.90
1205;DHT22;592;48.764;9.174;2023-07-02T02:48:37;17.00;99.90
1205;DHT22;592;48.764;9.174;2023-07-02T02:51:04;16.70;99.90
1205;DHT22;592;48.764;9.174;2023-07-02T02:53:30;16.60;99.90
1205;DHT22;592;48.764;9.174;2023-07-02T02:55:57;16.50;99.90
1205;DHT22;592;48.764;9.174;2023-07-02T02:58:24;16.40;99.90
1205;DHT22;592;48.764;9.174;2023-07-02T03:00:53;16.20;99.90
1205;DHT22;592;48.764;9.174;2023-07-02T03:03:21;16.50;99.90
1205;DHT22;592;48.764;9.174;2023-07-02T03:05:49;16.40;99.90
1205;DHT22;592;48.764;9.174;2023-07-02T03:08:16;16.30;99.90
1205;DHT22;592;48.764;9.174;2023-07-02T03:10:43;16.20;99.90
1205;DHT22;592;48.764;9.174;2023-07-02T03:13:10;16.20;99.90
1205;DHT22;592;48.764;9.174;2023-07-02T03:15:37;16.20;99.90
1205;DHT22;592;48.764;9.174;2023-07-02T03:18:04;16.10;99.90
1205;DHT22;592;48.764;9.174;2023-07-02T03:20:32;16.10;99.90
1205;DHT22;592;48.764;9.174;2023-07-02T03:22:59;16.10;99.90
1205;DHT22;592;48.764;9.174;2023-07-02T03:25:26;16.10;99.90
1205;DHT22;592;48.764;9.174;2023-07-02T03:27:53;16.00;99.90
1205;DHT22;592;48.764;9.174;2023-07-02T03:30:20;15.80;99.90
1205;DHT22;592;48.764;9.174;2023-07-02T03:32:46;15.70;99.90
1205;DHT22;592;48.764;9.174;2023-07-02T03:35:13;15.70;99.90
1205;DHT22;592;48.764;9.174;2023-07-02T03:37:41;15.60;99.90
1205;DHT22;592;48.764;9.174;2023-07-02T03:40:09;15.40;99.90
1205;DHT22;592;48.764;9.174;2023-07-02T03:42:36;15.40;99.90
1205;DHT22;592;48.764;9.174;2023-07-02T03:45:03;15.50;99.90
1205;DHT22;592;48.764;9.174;2023-07-02T03:47:30;15.50;99.90
1205;DHT22;592;48.764;9.174;2023-07-02T03:49:56;15.50;99.90
1205;DHT22;592;48.764;9.174;2023-07-02T03:52:23;15.70;99.90
1205;DHT22;592;48.764;9.174;2023-07-02T03:54:51;15.80;99.90
1205;DHT22;592;48.764;9.174;2023-07-02T03:57:18;15.50;99.90
1205;DHT22;592;48.764;9.174;2023-07-02T03:59:44;15.50;99.90
1205;DHT22;592;48.764;9.174;2023-07-02T04:02:11;15.30;99.90
1205;DHT22;592;48.764;9.174;2023-07-02T04:04:38;15.30;99.90
1205;DHT22;592;48.764;9.174;2023-07-02T04:07:05;15.40;99.90
1205;DHT22;592;48.764;9.174;2023-07-02T04:09:32;15.20;99.90
1205;DHT22;592;48.764;9.174;2023-07-02T04:12:00;15.20;99.90
1205;DHT22;592;48.764;9.174;2023-07-02T04:14:27;15.20;99.90
1205;DHT22;592;48.764;9.174;2023-07-02T04:16:53;15.30;99.90
1205;DHT22;592;48.764;9.174;2023-07-02T04:19:20;15.30;99.90
1205;DHT22;592;48.764;9.174;2023-07-02T04:21:47;15.30;99.90
1205;DHT22;592;48.764;9.174;2023-07-02T04:24:14;15.20;99.90
1205;DHT22;592;48.764;9.174;2023-07-02T04:26:41;15.30;99.90
1205;DHT22;592;48.764;9.174;2023-07-02T04:29:09;15.20;99.90
1205;DHT22;592;48.764;9.174;2023-07-02T04:31:36;15.30;99.90
1205;DHT22;592;48.764;9.174;2023-07-02T04:34:03;15.30;99.90
1205;DHT22;592;48.764;9.174;2023-07-02T04:36:31;15.40;99.90
1205;DHT22;592;48.764;9.174;2023-07-02T04:38:57;15.50;99.90
1205;DHT22;592;48.764;9.174;2023-07-02T04:41:24;15.60;99.90
1205;DHT22;592;48.764;9.174;2023-07-02T04:43:51;15.50;99.90
1205;DHT22;592;48.764;9.174;2023-07-02T04:46:19;15.60;99.90
1205;DHT22;592;48.764;9.174;2023-07-02T04:48:45;15.60;99.90
1205;DHT22;592;48.764;9.174;2023-07-02T04:51:12;15.60;99.90
1205;DHT22;592;48.764;9.174;2023-07-02T04:53:39;15.70;99.90
1205;DHT22;592;48.764;9.174;2023-07-02T04:56:06;15.70;99.90
1205;DHT22;592;48.764;9.174;2023-07-02T04:58:32;15.80;99.90
1205;DHT22;592;48.764;9.174;2023-07-02T05:00:59;16.00;99.90
1205;DHT22;592;48.764;9.174;2023-07-02T05:03:27;16.00;99.90
1205;DHT22;592;48.764;9.174;2023-07-02T05:05:54;16.20;99.90
1205;DHT22;592;48.764;9.174;2023-07-02T05:08:21;16.20;99.90
1205;DHT22;592;48.764;9.174;2023-07-02T05:10:47;16.00;99.90
1205;DHT22;592;48.764;9.174;2023-07-02T05:13:14;16.10;99.90
1205;DHT22;592;48.764;9.174;2023-07-02T05:15:41;16.10;99.90
1205;DHT22;592;48.764;9.174;2023-07-02T05:18:08;16.10;99.90
1205;DHT22;592;48.764;9.174;2023-07-02T05:20:36;16.10;99.90
1205;DHT22;592;48.764;9.174;2023-07-02T05:23:02;16.10;99.90
1205;DHT22;592;48.764;9.174;2023-07-02T05:25:29;16.10;99.90
1205;DHT22;592;48.764;9.174;2023-07-02T05:27:58;16.30;99.90
1205;DHT22;592;48.764;9.174;2023-07-02T05:30:24;16.20;99.90
1205;DHT22;592;48.764;9.174;2023-07-02T05:32:51;16.30;99.90
1205;DHT22;592;48.764;9.174;2023-07-02T05:35:18;16.30;99.90
1205;DHT22;592;48.764;9.174;2023-07-02T05:37:46;16.50;99.90
1205;DHT22;592;48.764;9.174;2023-07-02T05:40:12;16.50;99.90
1205;DHT22;592;48.764;9.174;2023-07-02T05:42:39;16.50;99.90
1205;DHT22;592;48.764;9.174;2023-07-02T05:45:08;16.30;99.90
1205;DHT22;592;48.764;9.174;2023-07-02T05:47:35;16.50;99.90
1205;DHT22;592;48.764;9.174;2023-07-02T05:50:02;16.40;99.90
1205;DHT22;592;48.764;9.174;2023-07-02T05:52:29;16.60;99.90
1205;DHT22;592;48.764;9.174;2023-07-02T05:54:57;16.70;99.90
1205;DHT22;592;48.764;9.174;2023-07-02T05:57:24;16.90;99.90
1205;DHT22;592;48.764;9.174;2023-07-02T05:59:51;16.90;99.90
1205;DHT22;592;48.764;9.174;2023-07-02T06:02:17;17.10;99.90
1205;DHT22;592;48.764;9.174;2023-07-02T06:04:44;17.40;99.90
1205;DHT22;592;48.764;9.174;2023-07-02T06:07:11;17.20;99.90
1205;DHT22;592;48.764;9.174;2023-07-02T06:09:37;17.30;99.90
1205;DHT22;592;48.764;9.174;2023-07-02T06:12:06;17.40;99.90
1205;DHT22;592;48.764;9.174;2023-07-02T06:14:32;17.70;99.90
1205;DHT22;592;48.764;9.174;2023-07-02T06:16:59;17.40;99.90
1205;DHT22;592;48.764;9.174;2023-07-02T06:19:26;17.20;99.90
1205;DHT22;592;48.764;9.174;2023-07-02T06:21:53;17.20;99.90
1205;DHT22;592;48.764;9.174;2023-07-02T06:24:19;17.40;99.90
1205;DHT22;592;48.764;9.174;2023-07-02T06:26:46;17.50;99.90
1205;DHT22;592;48.764;9.174;2023-07-02T06:29:14;17.50;99.90
1205;DHT22;592;48.764;9.174;2023-07-02T06:31:41;17.70;99.90
1205;DHT22;592;48.764;9.174;2023-07-02T06:34:08;17.90;99.90
1205;DHT22;592;48.764;9.174;2023-07-02T06:36:35;17.80;99.90
1205;DHT22;592;48.764;9.174;2023-07-02T06:39:01;17.50;99.90
1205;DHT22;592;48.764;9.174;2023-07-02T06:41:28;17.60;99.90
1205;DHT22;592;48.764;9.174;2023-07-02T06:43:55;17.30;99.90
1205;DHT22;592;48.764;9.174;2023-07-02T06:46:23;17.50;99.90
1205;DHT22;592;48.764;9.174;2023-07-02T06:48:49;17.40;99.90
1205;DHT22;592;48.764;9.174;2023-07-02T06:51:16;17.40;99.90
1205;DHT22;592;48.764;9.174;2023-07-02T06:53:44;17.30;99.90
1205;DHT22;592;48.764;9.174;2023-07-02T06:56:11;17.30;99.90
1205;DHT22;592;48.764;9.174;2023-07-02T06:58:39;17.30;99.90
1205;DHT22;592;48.764;9.174;2023-07-02T07:01:06;17.50;99.90
1205;DHT22;592;48.764;9.174;2023-07-02T07:03:35;17.70;99.90
1205;DHT22;592;48.764;9.174;2023-07-02T07:06:02;17.70;99.90
1205;DHT22;592;48.764;9.174;2023-07-02T07:08:29;17.80;99.90
1205;DHT22;592;48.764;9.174;2023-07-02T07:10:55;17.80;99.90
1205;DHT22;592;48.764;9.174;2023-07-02T07:13:22;17.80;99.90
1205;DHT22;592;48.764;9.174;2023-07-02T07:15:48;17.90;99.90
1205;DHT22;592;48.764;9.174;2023-07-02T07:18:15;17.90;99.90
1205;DHT22;592;48.764;9.174;2023-07-02T07:20:45;18.00;99.90
1205;DHT22;592;48.764;9.174;2023-07-02T07:23:11;17.90;99.90
1205;DHT22;592;48.764;9.174;2023-07-02T07:25:38;17.80;99.90
1205;DHT22;592;48.764;9.174;2023-07-02T07:28:05;18.30;99.90
1205;DHT22;592;48.764;9.174;2023-07-02T07:30:31;18.80;99.90
1205;DHT22;592;48.764;9.174;2023-07-02T07:32:58;19.00;99.90
1205;DHT22;592;48.764;9.174;2023-07-02T07:35:25;19.10;99.90
1205;DHT22;592;48.764;9.174;2023-07-02T07:37:53;18.40;99.90
1205;DHT22;592;48.764;9.174;2023-07-02T07:40:19;18.70;99.90
1205;DHT22;592;48.764;9.174;2023-07-02T07:42:46;18.70;99.90
1205;DHT22;592;48.764;9.174;2023-07-02T07:45:13;19.00;99.90
1205;DHT22;592;48.764;9.174;2023-07-02T07:47:39;19.20;99.90
1205;DHT22;592;48.764;9.174;2023-07-02T07:50:07;18.80;99.90
1205;DHT22;592;48.764;9.174;2023-07-02T07:52:37;18.50;99.90
1205;DHT22;592;48.764;9.174;2023-07-02T07:55:05;18.70;99.90
1205;DHT22;592;48.764;9.174;2023-07-02T07:57:34;18.70;99.90
1205;DHT22;592;48.764;9.174;2023-07-02T08:00:00;18.80;99.90
1205;DHT22;592;48.764;9.174;2023-07-02T08:02:29;18.90;99.90
1205;DHT22;592;48.764;9.174;2023-07-02T08:04:56;18.80;99.90
1205;DHT22;592;48.764;9.174;2023-07-02T08:07:22;18.80;99.90
1205;DHT22;592;48.764;9.174;2023-07-02T08:09:49;18.80;99.90
1205;DHT22;592;48.764;9.174;2023-07-02T08:12:17;18.70;99.90
1205;DHT22;592;48.764;9.174;2023-07-02T08:14:44;18.90;99.90
1205;DHT22;592;48.764;9.174;2023-07-02T08:17:10;19.10;99.90
1205;DHT22;592;48.764;9.174;2023-07-02T08:19:37;19.00;99.90
1205;DHT22;592;48.764;9.174;2023-07-02T08:22:04;19.00;99.90
1205;DHT22;592;48.764;9.174;2023-07-02T08:24:31;19.40;99.90
1205;DHT22;592;48.764;9.174;2023-07-02T08:26:59;19.80;99.90
1205;DHT22;592;48.764;9.174;2023-07-02T08:29:29;19.70;99.90
1205;DHT22;592;48.764;9.174;2023-07-02T08:31:56;19.40;99.90
1205;DHT22;592;48.764;9.174;2023-07-02T08:34:22;19.50;99.90
1205;DHT22;592;48.764;9.174;2023-07-02T08:36:49;19.40;99.90
1205;DHT22;592;48.764;9.174;2023-07-02T08:39:17;19.20;99.90
1205;DHT22;592;48.764;9.174;2023-07-02T08:41:44;19.40;99.90
1205;DHT22;592;48.764;9.174;2023-07-02T08:44:11;19.90;99.90
1205;DHT22;592;48.764;9.174;2023-07-02T08:46:40;20.00;99.90
1205;DHT22;592;48.764;9.174;2023-07-02T08:49:07;19.90;99.90
1205;DHT22;592;48.764;9.174;2023-07-02T08:51:34;19.80;99.90
1205;DHT22;592;48.764;9.174;2023-07-02T08:54:02;19.50;99.90
1205;DHT22;592;48.764;9.174;2023-07-02T08:56:29;19.60;99.90
1205;DHT22;592;48.764;9.174;2023-07-02T08:58:55;19.50;99.90
1205;DHT22;592;48.764;9.174;2023-07-02T09:01:22;19.50;99.90
1205;DHT22;592;48.764;9.174;2023-07-02T09:03:50;19.80;99.50
1205;DHT22;592;48.764;9.174;2023-07-02T09:06:18;20.00;99.60
1205;DHT22;592;48.764;9.174;2023-07-02T09:08:45;20.30;99.60
1205;DHT22;592;48.764;9.174;2023-07-02T09:11:13;20.50;99.60
1205;DHT22;592;48.764;9.174;2023-07-02T09:13:48;20.50;98.10
1205;DHT22;592;48.764;9.174;2023-07-02T09:16:25;20.50;98.20
1205;DHT22;592;48.764;9.174;2023-07-02T09:19:01;20.30;97.90
1205;DHT22;592;48.764;9.174;2023-07-02T09:21:37;20.30;98.20
1205;DHT22;592;48.764;9.174;2023-07-02T09:24:12;20.60;98.80
1205;DHT22;592;48.764;9.174;2023-07-02T09:26:42;20.40;97.60
1205;DHT22;592;48.764;9.174;2023-07-02T09:29:09;20.50;98.30
1205;DHT22;592;48.764;9.174;2023-07-02T09:31:43;20.40;98.30
1205;DHT22;592;48.764;9.174;2023-07-02T09:34:12;20.30;98.50
1205;DHT22;592;48.764;9.174;2023-07-02T09:36:39;20.30;98.10
1205;DHT22;592;48.764;9.174;2023-07-02T09:39:07;20.40;97.90
1205;DHT22;592;48.764;9.174;2023-07-02T09:41:34;20.70;98.40
1205;DHT22;592;48.764;9.174;2023-07-02T09:44:01;21.00;98.60
1205;DHT22;592;48.764;9.174;2023-07-02T09:46:29;21.10;96.80
1205;DHT22;592;48.764;9.174;2023-07-02T09:48:58;21.10;98.00
1205;DHT22;592;48.764;9.174;2023-07-02T09:51:27;21.10;96.60
1205;DHT22;592;48.764;9.174;2023-07-02T09:53:54;21.00;97.30
1205;DHT22;592;48.764;9.174;2023-07-02T09:56:21;21.00;97.00
1205;DHT22;592;48.764;9.174;2023-07-02T09:58:48;21.30;98.00
1205;DHT22;592;48.764;9.174;2023-07-02T10:01:14;21.40;97.20
1205;DHT22;592;48.764;9.174;2023-07-02T10:03:41;21.20;96.90
1205;DHT22;592;48.764;9.174;2023-07-02T10:06:08;21.00;97.40
1205;DHT22;592;48.764;9.174;2023-07-02T10:08:36;21.40;98.10
1205;DHT22;592;48.764;9.174;2023-07-02T10:11:07;21.70;97.60
1205;DHT22;592;48.764;9.174;2023-07-02T10:13:34;21.20;97.10
1205;DHT22;592;48.764;9.174;2023-07-02T10:16:01;21.40;97.00
1205;DHT22;592;48.764;9.174;2023-07-02T10:18:28;21.70;97.70
1205;DHT22;592;48.764;9.174;2023-07-02T10:20:55;21.70;96.70
1205;DHT22;592;48.764;9.174;2023-07-02T10:23:32;21.90;97.20
1205;DHT22;592;48.764;9.174;2023-07-02T10:26:13;22.30;97.10
1205;DHT22;592;48.764;9.174;2023-07-02T10:28:40;22.60;97.00
1205;DHT22;592;48.764;9.174;2023-07-02T10:31:18;22.70;95.80
1205;DHT22;592;48.764;9.174;2023-07-02T10:33:45;22.30;95.40
1205;DHT22;592;48.764;9.174;2023-07-02T10:36:18;22.20;95.30
1205;DHT22;592;48.764;9.174;2023-07-02T10:38:45;21.90;95.30
1205;DHT22;592;48.764;9.174;2023-07-02T10:41:23;22.40;96.40
1205;DHT22;592;48.764;9.174;2023-07-02T10:43:50;22.20;95.40
1205;DHT22;592;48.764;9.174;2023-07-02T10:46:18;22.40;94.90
1205;DHT22;592;48.764;9.174;2023-07-02T10:48:51;22.50;96.60
1205;DHT22;592;48.764;9.174;2023-07-02T10:51:18;22.20;95.20
1205;DHT22;592;48.764;9.174;2023-07-02T10:53:45;22.30;95.70
1205;DHT22;592;48.764;9.174;2023-07-02T10:56:17;22.30;95.60
1205;DHT22;592;48.764;9.174;2023-07-02T10:58:43;22.50;95.70
1205;DHT22;592;48.764;9.174;2023-07-02T11:01:11;22.40;95.80
1205;DHT22;592;48.764;9.174;2023-07-02T11:03:38;22.60;96.20
1205;DHT22;592;48.764;9.174;2023-07-02T11:06:05;22.70;94.60
1205;DHT22;592;48.764;9.174;2023-07-02T11:08:35;22.50;94.60
1205;DHT22;592;48.764;9.174;2023-07-02T11:11:08;22.70;96.00
1205;DHT22;592;48.764;9.174;2023-07-02T11:13:44;22.40;94.80
1205;DHT22;592;48.764;9.174;2023-07-02T11:16:18;22.90;95.50
1205;DHT22;592;48.764;9.174;2023-07-02T11:18:45;22.80;94.80
1205;DHT22;592;48.764;9.174;2023-07-02T11:21:12;22.60;94.30
1205;DHT22;592;48.764;9.174;2023-07-02T11:23:38;22.60;94.40
1205;DHT22;592;48.764;9.174;2023-07-02T11:26:05;22.30;94.20
1205;DHT22;592;48.764;9.174;2023-07-02T11:28:32;21.90;94.30
1205;DHT22;592;48.764;9.174;2023-07-02T11:31:01;21.90;94.10
1205;DHT22;592;48.764;9.174;2023-07-02T11:33:33;21.70;93.80
1205;DHT22;592;48.764;9.174;2023-07-02T11:36:00;22.10;94.00
1205;DHT22;592;48.764;9.174;2023-07-02T11:38:27;22.00;93.40
1205;DHT22;592;48.764;9.174;2023-07-02T11:40:54;22.20;93.40
1205;DHT22;592;48.764;9.174;2023-07-02T11:43:20;22.40;93.70
1205;DHT22;592;48.764;9.174;2023-07-02T11:45:47;22.60;92.50
1205;DHT22;592;48.764;9.174;2023-07-02T11:48:15;22.70;92.40
1205;DHT22;592;48.764;9.174;2023-07-02T11:50:42;22.80;92.40
1205;DHT22;592;48.764;9.174;2023-07-02T11:53:09;22.90;91.60
1205;DHT22;592;48.764;9.174;2023-07-02T11:55:36;22.60;91.10
1205;DHT22;592;48.764;9.174;2023-07-02T11:58:03;22.80;91.70
1205;DHT22;592;48.764;9.174;2023-07-02T12:00:29;22.70;92.00
1205;DHT22;592;48.764;9.174;2023-07-02T12:02:56;22.50;92.50
1205;DHT22;592;48.764;9.174;2023-07-02T12:05:24;22.80;92.80
1205;DHT22;592;48.764;9.174;2023-07-02T12:07:51;22.80;91.60
1205;DHT22;592;48.764;9.174;2023-07-02T12:10:18;22.60;91.50
1205;DHT22;592;48.764;9.174;2023-07-02T12:12:44;22.60;91.50
1205;DHT22;592;48.764;9.174;2023-07-02T12:15:11;22.60;91.60
1205;DHT22;592;48.764;9.174;2023-07-02T12:17:38;22.50;90.80
1205;DHT22;592;48.764;9.174;2023-07-02T12:20:05;22.90;93.00
1205;DHT22;592;48.764;9.174;2023-07-02T12:22:33;23.00;91.70
1205;DHT22;592;48.764;9.174;2023-07-02T12:25:00;23.20;91.90
1205;DHT22;592;48.764;9.174;2023-07-02T12:27:27;23.20;91.60
1205;DHT22;592;48.764;9.174;2023-07-02T12:29:53;23.30;91.00
1205;DHT22;592;48.764;9.174;2023-07-02T12:32:20;23.60;91.50
1205;DHT22;592;48.764;9.174;2023-07-02T12:34:47;23.60;90.70
1205;DHT22;592;48.764;9.174;2023-07-02T12:37:13;23.30;90.90
1205;DHT22;592;48.764;9.174;2023-07-02T12:39:44;23.40;90.40
1205;DHT22;592;48.764;9.174;2023-07-02T12:42:11;23.50;90.30
1205;DHT22;592;48.764;9.174;2023-07-02T12:44:37;23.60;91.00
1205;DHT22;592;48.764;9.174;2023-07-02T12:47:05;23.80;90.80
1205;DHT22;592;48.764;9.174;2023-07-02T12:49:31;23.50;87.50
1205;DHT22;592;48.764;9.174;2023-07-02T12:51:58;23.50;89.10
1205;DHT22;592;48.764;9.174;2023-07-02T12:54:25;24.00;90.40
1205;DHT22;592;48.764;9.174;2023-07-02T12:56:53;24.00;89.20
1205;DHT22;592;48.764;9.174;2023-07-02T12:59:20;23.70;87.50
1205;DHT22;592;48.764;9.174;2023-07-02T13:01:46;23.70;88.50
1205;DHT22;592;48.764;9.174;2023-07-02T13:04:13;23.80;87.20
1205;DHT22;592;48.764;9.174;2023-07-02T13:06:40;23.70;88.80
1205;DHT22;592;48.764;9.174;2023-07-02T13:09:07;23.90;88.00
1205;DHT22;592;48.764;9.174;2023-07-02T13:11:34;24.00;86.80
1205;DHT22;592;48.764;9.174;2023-07-02T13:14:03;24.00;87.60
1205;DHT22;592;48.764;9.174;2023-07-02T13:16:29;24.20;86.80
1205;DHT22;592;48.764;9.174;2023-07-02T13:18:56;24.50;87.30
1205;DHT22;592;48.764;9.174;2023-07-02T13:21:23;24.70;87.60
1205;DHT22;592;48.764;9.174;2023-07-02T13:23:49;24.70;86.40
1205;DHT22;592;48.764;9.174;2023-07-02T13:26:16;25.00;88.10
1205;DHT22;592;48.764;9.174;2023-07-02T13:28:43;25.20;86.10
1205;DHT22;592;48.764;9.174;2023-07-02T13:31:14;25.40;85.50
1205;DHT22;592;48.764;9.174;2023-07-02T13:33:41;25.60;86.00
1205;DHT22;592;48.764;9.174;2023-07-02T13:36:08;25.70;85.90
1205;DHT22;592;48.764;9.174;2023-07-02T13:38:35;25.60;86.10
1205;DHT22;592;48.764;9.174;2023-07-02T13:41:01;25.80;84.20
1205;DHT22;592;48.764;9.174;2023-07-02T13:43:28;25.70;85.60
1205;DHT22;592;48.764;9.174;2023-07-02T13:45:55;25.80;84.50
1205;DHT22;592;48.764;9.174;2023-07-02T13:48:23;26.00;84.40
1205;DHT22;592;48.764;9.174;2023-07-02T13:50:49;25.90;82.20
1205;DHT22;592;48.764;9.174;2023-07-02T13:53:16;25.70;83.90
1205;DHT22;592;48.764;9.174;2023-07-02T13:55:43;25.90;82.90
1205;DHT22;592;48.764;9.174;2023-07-02T13:58:09;26.10;81.90
1205;DHT22;592;48.764;9.174;2023-07-02T14:00:37;26.20;80.70
1205;DHT22;592;48.764;9.174;2023-07-02T14:03:04;26.00;80.30
1205;DHT22;592;48.764;9.174;2023-07-02T14:05:32;25.80;81.10
1205;DHT22;592;48.764;9.174;2023-07-02T14:07:59;26.10;83.30
1205;DHT22;592;48.764;9.174;2023-07-02T14:10:25;26.10;83.50
1205;DHT22;592;48.764;9.174;2023-07-02T14:12:53;25.30;81.60
1205;DHT22;592;48.764;9.174;2023-07-02T14:15:20;25.10;83.10
1205;DHT22;592;48.764;9.174;2023-07-02T14:17:50;25.30;82.20
1205;DHT22;592;48.764;9.174;2023-07-02T14:20:16;26.10;84.90
1205;DHT22;592;48.764;9.174;2023-07-02T14:22:43;25.80;82.10
1205;DHT22;592;48.764;9.174;2023-07-02T14:25:10;25.60;82.30
1205;DHT22;592;48.764;9.174;2023-07-02T14:27:37;26.40;81.80
1205;DHT22;592;48.764;9.174;2023-07-02T14:30:05;26.50;79.30
1205;DHT22;592;48.764;9.174;2023-07-02T14:32:33;26.50;80.40
1205;DHT22;592;48.764;9.174;2023-07-02T14:35:02;27.00;79.70
1205;DHT22;592;48.764;9.174;2023-07-02T14:37:28;27.40;80.40
1205;DHT22;592;48.764;9.174;2023-07-02T14:39:55;28.00;78.60
1205;DHT22;592;48.764;9.174;2023-07-02T14:42:22;28.40;79.50
1205;DHT22;592;48.764;9.174;2023-07-02T14:44:48;28.20;76.80
1205;DHT22;592;48.764;9.174;2023-07-02T14:47:15;28.70;78.60
1205;DHT22;592;48.764;9.174;2023-07-02T14:49:42;28.10;76.20
1205;DHT22;592;48.764;9.174;2023-07-02T14:52:10;28.10;76.80
1205;DHT22;592;48.764;9.174;2023-07-02T14:54:38;28.20;77.70
1205;DHT22;592;48.764;9.174;2023-07-02T14:57:04;27.60;78.30
1205;DHT22;592;48.764;9.174;2023-07-02T14:59:31;28.30;78.00
1205;DHT22;592;48.764;9.174;2023-07-02T15:01:58;28.60;77.20
1205;DHT22;592;48.764;9.174;2023-07-02T15:04:24;28.70;76.40
1205;DHT22;592;48.764;9.174;2023-07-02T15:06:51;29.10;76.20
1205;DHT22;592;48.764;9.174;2023-07-02T15:09:20;30.00;74.20
1205;DHT22;592;48.764;9.174;2023-07-02T15:11:46;29.50;75.00
1205;DHT22;592;48.764;9.174;2023-07-02T15:14:13;29.50;72.60
1205;DHT22;592;48.764;9.174;2023-07-02T15:16:39;28.70;75.50
1205;DHT22;592;48.764;9.174;2023-07-02T15:19:06;27.70;75.60
1205;DHT22;592;48.764;9.174;2023-07-02T15:21:33;27.50;77.50
1205;DHT22;592;48.764;9.174;2023-07-02T15:23:59;26.80;77.20
1205;DHT22;592;48.764;9.174;2023-07-02T15:26:27;27.00;79.60
1205;DHT22;592;48.764;9.174;2023-07-02T15:28:54;26.60;77.90
1205;DHT22;592;48.764;9.174;2023-07-02T15:31:21;26.70;79.30
1205;DHT22;592;48.764;9.174;2023-07-02T15:33:47;26.50;78.50
1205;DHT22;592;48.764;9.174;2023-07-02T15:36:14;26.60;80.30
1205;DHT22;592;48.764;9.174;2023-07-02T15:38:41;26.80;80.50
1205;DHT22;592;48.764;9.174;2023-07-02T15:41:09;26.70;80.20
1205;DHT22;592;48.764;9.174;2023-07-02T15:43:38;26.50;80.30
1205;DHT22;592;48.764;9.174;2023-07-02T15:46:05;26.40;80.50
1205;DHT22;592;48.764;9.174;2023-07-02T15:48:32;26.50;80.90
1205;DHT22;592;48.764;9.174;2023-07-02T15:50:59;26.40;80.60
1205;DHT22;592;48.764;9.174;2023-07-02T15:53:28;25.80;80.70
1205;DHT22;592;48.764;9.174;2023-07-02T15:55:55;25.70;81.10
1205;DHT22;592;48.764;9.174;2023-07-02T15:58:22;25.80;81.80
1205;DHT22;592;48.764;9.174;2023-07-02T16:00:50;25.80;82.00
1205;DHT22;592;48.764;9.174;2023-07-02T16:03:17;26.00;82.10
1205;DHT22;592;48.764;9.174;2023-07-02T16:05:43;25.60;82.30
1205;DHT22;592;48.764;9.174;2023-07-02T16:08:10;25.70;82.50
1205;DHT22;592;48.764;9.174;2023-07-02T16:10:40;25.60;80.80
1205;DHT22;592;48.764;9.174;2023-07-02T16:13:08;25.40;81.80
1205;DHT22;592;48.764;9.174;2023-07-02T16:15:37;25.60;82.50
1205;DHT22;592;48.764;9.174;2023-07-02T16:18:05;25.60;81.40